createdAt,value
2017-11-17T00:00:15.372Z,25.65
2017-11-17T00:00:50.086Z,28.85
2017-11-17T00:01:24.787Z,25.77
2017-11-17T00:01:59.481Z,27.27
2017-11-17T00:02:34.198Z,26.95
2017-11-17T00:03:08.904Z,27.98
2017-11-17T00:03:43.620Z,25.45
2017-11-17T00:04:18.334Z,26.40
2017-11-17T00:04:53.048Z,27.75
2017-11-17T00:05:27.740Z,26.80
2017-11-17T00:06:02.453Z,26.60
2017-11-17T00:06:37.161Z,27.27
2017-11-17T00:07:11.876Z,27.85
2017-11-17T00:07:46.587Z,26.87
2017-11-17T00:08:21.303Z,26.15
2017-11-17T00:08:56.017Z,26.17
2017-11-17T00:09:30.730Z,27.15
2017-11-17T00:10:05.457Z,26.98
2017-11-17T00:10:40.159Z,27.10
2017-11-17T00:11:14.877Z,27.08
2017-11-17T00:11:49.585Z,27.30
2017-11-17T00:12:24.300Z,27.13
2017-11-17T00:12:59.019Z,29.08
2017-11-17T00:13:33.724Z,27.00
2017-11-17T00:14:08.859Z,28.02
2017-11-17T00:14:43.560Z,27.13
2017-11-17T00:15:18.301Z,28.30
2017-11-17T00:15:53.006Z,26.87
2017-11-17T00:16:27.732Z,27.40
2017-11-17T00:17:02.429Z,25.90
2017-11-17T00:17:37.148Z,27.27
2017-11-17T00:18:11.869Z,28.45
2017-11-17T00:18:46.590Z,26.67
2017-11-17T00:19:21.310Z,27.00
2017-11-17T00:19:56.019Z,26.70
2017-11-17T00:20:30.716Z,27.05
2017-11-17T00:21:05.431Z,28.98
2017-11-17T00:21:40.145Z,28.15
2017-11-17T00:22:14.840Z,26.58
2017-11-17T00:22:49.546Z,26.50
2017-11-17T00:23:24.234Z,26.12
2017-11-17T00:23:58.944Z,27.52
2017-11-17T00:24:33.967Z,28.62
2017-11-17T00:25:08.665Z,25.88
2017-11-17T00:25:43.394Z,25.40
2017-11-17T00:26:18.265Z,26.37
2017-11-17T00:26:52.977Z,27.13
2017-11-17T00:27:27.691Z,26.73
2017-11-17T00:28:02.431Z,26.00
2017-11-17T00:28:37.177Z,27.25
2017-11-17T00:29:11.884Z,26.70
2017-11-17T00:29:46.903Z,26.65
2017-11-17T00:30:21.645Z,28.10
2017-11-17T00:30:56.357Z,27.42
2017-11-17T00:31:31.072Z,27.08
2017-11-17T00:32:05.780Z,27.30
2017-11-17T00:32:40.476Z,27.05
2017-11-17T00:33:15.299Z,26.87
2017-11-17T00:33:50.030Z,26.92
2017-11-17T00:34:24.759Z,28.83
2017-11-17T00:34:59.740Z,26.30
2017-11-17T00:35:34.753Z,27.50
2017-11-17T00:36:09.457Z,25.88
2017-11-17T00:36:44.164Z,27.23
2017-11-17T00:37:18.885Z,27.67
2017-11-17T00:37:53.620Z,27.98
2017-11-17T00:38:28.305Z,27.33
2017-11-17T00:39:03.010Z,27.70
2017-11-17T00:39:37.749Z,28.12
2017-11-17T00:40:12.483Z,25.98
2017-11-17T00:40:47.193Z,26.73
2017-11-17T00:41:21.904Z,27.25
2017-11-17T00:41:56.630Z,27.58
2017-11-17T00:42:31.341Z,28.27
2017-11-17T00:43:06.044Z,28.55
2017-11-17T00:43:40.795Z,28.23
2017-11-17T00:44:15.480Z,28.52
2017-11-17T00:44:50.183Z,27.33
2017-11-17T00:45:25.279Z,29.25
2017-11-17T00:46:00.005Z,29.33
2017-11-17T00:46:34.704Z,28.98
2017-11-17T00:47:09.413Z,28.12
2017-11-17T00:47:44.123Z,27.20
2017-11-17T00:48:18.838Z,27.70
2017-11-17T00:48:53.527Z,28.35
2017-11-17T00:49:28.243Z,28.40
2017-11-17T00:50:02.612Z,27.65
2017-11-17T00:50:37.350Z,28.87
2017-11-17T00:51:12.057Z,28.38
2017-11-17T00:51:47.956Z,27.10
2017-11-17T00:52:22.665Z,28.25
2017-11-17T00:52:57.360Z,29.75
2017-11-17T00:53:32.058Z,28.23
2017-11-17T00:54:06.759Z,28.52
2017-11-17T00:54:41.284Z,28.85
2017-11-17T00:55:16.002Z,28.95
2017-11-17T00:55:50.757Z,29.48
2017-11-17T00:56:25.456Z,30.37
2017-11-17T00:57:00.165Z,27.85
2017-11-17T00:57:34.989Z,30.12
2017-11-17T00:58:09.703Z,29.77
2017-11-17T00:58:44.417Z,28.92
2017-11-17T00:59:19.121Z,27.98
2017-11-17T00:59:53.844Z,29.50
2017-11-17T01:00:28.661Z,29.25
2017-11-17T01:01:03.389Z,29.17
2017-11-17T01:01:38.097Z,28.10
2017-11-17T01:02:12.784Z,29.58
2017-11-17T01:02:47.488Z,29.95
2017-11-17T01:03:22.196Z,30.60
2017-11-17T01:03:56.896Z,28.83
2017-11-17T01:04:31.588Z,29.33
2017-11-17T01:05:06.321Z,28.98
2017-11-17T01:05:41.014Z,29.60
2017-11-17T01:06:15.967Z,28.70
2017-11-17T01:06:50.685Z,28.77
2017-11-17T01:07:25.381Z,28.30
2017-11-17T01:08:00.087Z,27.87
2017-11-17T01:08:34.800Z,27.62
2017-11-17T01:09:09.496Z,29.80
2017-11-17T01:09:44.184Z,29.00
2017-11-17T01:10:18.888Z,30.30
2017-11-17T01:10:53.610Z,28.73
2017-11-17T01:11:28.701Z,28.15
2017-11-17T01:12:03.582Z,28.75
2017-11-17T01:12:38.317Z,28.15
2017-11-17T01:13:13.023Z,28.23
2017-11-17T01:13:47.742Z,27.20
2017-11-17T01:14:22.453Z,26.40
2017-11-17T01:14:57.171Z,26.75
2017-11-17T01:15:31.881Z,24.48
2017-11-17T01:16:07.089Z,25.90
2017-11-17T01:16:42.127Z,24.98
2017-11-17T01:17:16.842Z,24.23
2017-11-17T01:17:51.557Z,25.50
2017-11-17T01:18:26.268Z,26.42
2017-11-17T01:19:00.975Z,25.40
2017-11-17T01:19:35.675Z,25.62
2017-11-17T01:20:10.380Z,25.33
2017-11-17T01:20:45.078Z,26.30
2017-11-17T01:21:19.762Z,25.55
2017-11-17T01:21:54.759Z,25.42
2017-11-17T01:22:29.467Z,25.25
2017-11-17T01:23:04.182Z,23.20
2017-11-17T01:23:38.873Z,26.25
2017-11-17T01:24:13.562Z,25.20
2017-11-17T01:24:48.256Z,26.92
2017-11-17T01:25:22.956Z,25.10
2017-11-17T01:25:57.649Z,26.80
2017-11-17T01:26:32.372Z,26.50
2017-11-17T01:27:07.103Z,26.10
2017-11-17T01:27:41.789Z,25.65
2017-11-17T01:28:16.502Z,24.50
2017-11-17T01:28:51.204Z,24.83
2017-11-17T01:29:26.038Z,23.17
2017-11-17T01:30:00.777Z,24.77
2017-11-17T01:30:36.552Z,24.37
2017-11-17T01:31:11.325Z,24.12
2017-11-17T01:31:46.020Z,24.92
2017-11-17T01:32:21.021Z,23.65
2017-11-17T01:32:55.932Z,23.85
2017-11-17T01:33:30.771Z,24.00
2017-11-17T01:34:05.485Z,23.25
2017-11-17T01:34:39.841Z,24.45
2017-11-17T01:35:14.533Z,23.05
2017-11-17T01:35:49.245Z,23.45
2017-11-17T01:36:23.955Z,24.05
2017-11-17T01:36:58.652Z,22.17
2017-11-17T01:37:33.368Z,24.17
2017-11-17T01:38:08.080Z,22.67
2017-11-17T01:38:42.781Z,22.23
2017-11-17T01:39:17.501Z,24.15
2017-11-17T01:39:52.211Z,21.62
2017-11-17T01:40:26.911Z,21.30
2017-11-17T01:41:01.637Z,21.90
2017-11-17T01:41:36.354Z,20.27
2017-11-17T01:42:11.067Z,20.02
2017-11-17T02:24:34.185Z,9.63
2017-11-17T02:25:08.560Z,11.52
2017-11-17T02:25:42.931Z,13.25
2017-11-17T02:26:17.297Z,11.75
2017-11-17T02:26:51.670Z,12.68
2017-11-17T02:27:26.084Z,12.73
2017-11-17T02:28:00.441Z,12.35
2017-11-17T02:28:34.788Z,12.18
2017-11-17T02:29:09.136Z,13.45
2017-11-17T02:29:43.741Z,12.23
2017-11-17T02:30:18.114Z,12.15
2017-11-17T02:30:52.493Z,11.48
2017-11-17T02:31:26.857Z,10.93
2017-11-17T02:32:01.232Z,11.27
2017-11-17T02:32:35.943Z,10.38
2017-11-17T02:33:10.324Z,10.77
2017-11-17T02:33:44.701Z,10.98
2017-11-17T02:34:19.069Z,10.15
2017-11-17T02:34:53.814Z,10.77
2017-11-17T02:35:28.179Z,10.00
2017-11-17T02:36:02.560Z,10.15
2017-11-17T02:36:36.998Z,9.65
2017-11-17T02:37:11.369Z,8.80
2017-11-17T02:37:45.742Z,8.38
2017-11-17T02:38:20.463Z,9.40
2017-11-17T02:38:55.203Z,9.35
2017-11-17T02:39:29.583Z,8.70
2017-11-17T02:40:03.990Z,8.38
2017-11-17T02:40:38.366Z,6.85
2017-11-17T02:41:12.738Z,6.65
2017-11-17T02:41:47.100Z,6.70
2017-11-17T02:42:21.462Z,6.50
2017-11-17T02:42:55.811Z,6.82
2017-11-17T02:43:30.186Z,7.18
2017-11-17T02:44:04.558Z,6.72
2017-11-17T02:44:38.929Z,7.20
2017-11-17T02:45:13.647Z,7.07
2017-11-17T02:45:48.021Z,6.40
2017-11-17T02:46:22.397Z,6.82
2017-11-17T02:46:56.765Z,7.12
2017-11-17T02:47:31.129Z,6.53
2017-11-17T02:48:05.515Z,5.40
2017-11-17T02:48:39.886Z,6.25
2017-11-17T02:49:14.251Z,5.03
2017-11-17T02:49:48.630Z,6.10
2017-11-17T02:50:23.035Z,5.35
2017-11-17T02:50:57.400Z,6.87
2017-11-17T02:51:31.770Z,5.93
2017-11-17T02:52:06.151Z,5.85
2017-11-17T02:52:40.834Z,4.65
2017-11-17T02:53:15.194Z,4.35
2017-11-17T02:53:49.572Z,4.57
2017-11-17T02:54:23.944Z,4.15
2017-11-17T02:54:58.624Z,4.72
2017-11-17T02:55:33.584Z,3.72
2017-11-17T02:56:07.947Z,4.60
2017-11-17T02:56:42.331Z,3.60
2017-11-17T02:57:16.693Z,3.80
2017-11-17T02:57:51.062Z,3.50
2017-11-17T02:58:25.753Z,3.75
2017-11-17T02:59:00.117Z,3.42
2017-11-17T02:59:34.488Z,3.65
2017-11-17T03:00:09.172Z,3.85
2017-11-17T03:00:43.847Z,3.30
2017-11-17T03:01:18.538Z,3.80
2017-11-17T03:01:53.237Z,3.47
2017-11-17T03:02:27.596Z,3.30
2017-11-17T03:03:02.849Z,2.97
2017-11-17T03:03:37.534Z,3.08
2017-11-17T03:04:11.893Z,2.90
2017-11-17T03:04:46.581Z,2.80
2017-11-17T03:05:20.958Z,3.62
2017-11-17T03:05:55.720Z,3.60
2017-11-17T03:06:30.398Z,2.40
2017-11-17T03:07:04.768Z,3.10
2017-11-17T03:07:39.449Z,2.83
2017-11-17T03:08:13.808Z,2.70
2017-11-17T03:08:48.584Z,2.50
2017-11-17T03:09:22.976Z,2.90
2017-11-17T03:09:58.937Z,3.00
2017-11-17T03:10:33.616Z,2.70
2017-11-17T03:11:08.326Z,2.30
2017-11-17T03:11:42.685Z,3.10
2017-11-17T03:12:17.039Z,2.60
2017-11-17T03:12:51.738Z,2.45
2017-11-17T03:13:26.638Z,2.05
2017-11-17T03:14:02.030Z,3.05
2017-11-17T03:14:36.776Z,2.60
2017-11-17T03:15:12.311Z,2.85
2017-11-17T03:15:46.994Z,2.53
2017-11-17T03:16:22.045Z,2.67
2017-11-17T03:16:56.727Z,2.60
2017-11-17T03:17:31.071Z,2.22
2017-11-17T03:18:05.752Z,2.40
2017-11-17T03:18:40.433Z,3.42
2017-11-17T03:19:15.120Z,2.67
2017-11-17T03:19:50.009Z,2.50
2017-11-17T03:20:24.688Z,2.83
2017-11-17T03:20:59.488Z,2.80
2017-11-17T03:21:33.860Z,2.33
2017-11-17T03:22:08.545Z,2.40
2017-11-17T03:22:43.240Z,2.72
2017-11-17T03:23:17.933Z,2.35
2017-11-17T03:23:52.620Z,2.80
2017-11-17T03:24:27.296Z,2.60
2017-11-17T03:25:02.089Z,2.75
2017-11-17T03:25:36.468Z,2.30
2017-11-17T03:26:10.841Z,2.90
2017-11-17T03:26:45.565Z,2.58
2017-11-17T03:27:19.941Z,3.20
2017-11-17T03:27:54.320Z,2.60
2017-11-17T03:28:28.680Z,2.45
2017-11-17T03:29:03.064Z,2.47
2017-11-17T03:29:37.432Z,2.42
2017-11-17T03:30:11.798Z,2.15
2017-11-17T03:30:46.174Z,1.95
2017-11-17T03:31:20.522Z,2.40
2017-11-17T03:31:55.504Z,2.42
2017-11-17T03:32:30.193Z,2.65
2017-11-17T03:33:04.883Z,2.25
2017-11-17T03:33:39.237Z,2.20
2017-11-17T03:34:13.928Z,2.70
2017-11-17T03:34:48.636Z,2.30
2017-11-17T03:35:23.344Z,1.95
2017-11-17T03:35:57.708Z,2.28
2017-11-17T03:36:32.389Z,2.50
2017-11-17T03:37:07.095Z,2.20
2017-11-17T03:37:41.789Z,2.12
2017-11-17T03:38:16.469Z,2.03
2017-11-17T03:38:50.835Z,2.40
2017-11-17T03:39:25.189Z,2.30
2017-11-17T03:39:59.551Z,2.25
2017-11-17T03:40:33.895Z,2.55
2017-11-17T03:41:08.246Z,2.35
2017-11-17T03:41:42.938Z,2.75
2017-11-17T03:42:17.308Z,2.30
2017-11-17T03:42:51.656Z,2.05
2017-11-17T03:43:26.400Z,2.00
2017-11-17T03:44:01.093Z,1.95
2017-11-17T03:44:35.445Z,2.25
2017-11-17T03:45:09.802Z,2.65
2017-11-17T03:45:43.960Z,2.50
2017-11-17T03:46:18.324Z,2.08
2017-11-17T03:46:52.695Z,2.25
2017-11-17T03:47:27.418Z,2.55
2017-11-17T03:48:02.116Z,2.22
2017-11-17T03:48:36.804Z,2.00
2017-11-17T03:49:11.160Z,1.83
2017-11-17T03:49:45.517Z,2.28
2017-11-17T03:50:20.209Z,1.98
2017-11-17T03:50:54.910Z,2.35
2017-11-17T03:51:29.592Z,2.00
2017-11-17T03:52:03.940Z,2.10
2017-11-17T03:52:38.978Z,2.53
2017-11-17T03:53:13.333Z,1.95
2017-11-17T03:53:48.041Z,2.58
2017-11-17T03:54:22.722Z,2.40
2017-11-17T03:54:57.419Z,1.98
2017-11-17T03:55:32.107Z,2.10
2017-11-17T03:56:06.801Z,2.37
2017-11-17T03:56:41.165Z,1.85
2017-11-17T03:57:15.844Z,2.20
2017-11-17T03:57:50.548Z,2.08
2017-11-17T03:58:25.239Z,2.40
2017-11-17T03:58:59.920Z,2.00
2017-11-17T03:59:34.622Z,2.10
2017-11-17T04:00:08.961Z,2.22
2017-11-17T04:00:43.419Z,1.90
2017-11-17T04:01:18.105Z,1.80
2017-11-17T04:01:52.805Z,2.30
2017-11-17T04:02:27.485Z,2.80
2017-11-17T04:03:02.500Z,2.22
2017-11-17T04:03:37.192Z,1.90
2017-11-17T04:04:11.945Z,1.55
2017-11-17T04:04:46.633Z,3.00
2017-11-17T04:05:21.325Z,2.55
2017-11-17T04:05:56.009Z,2.30
2017-11-17T04:06:30.695Z,3.05
2017-11-17T04:07:05.371Z,2.20
2017-11-17T04:07:39.776Z,2.33
2017-11-17T04:08:14.482Z,2.40
2017-11-17T04:08:48.849Z,2.30
2017-11-17T04:09:23.536Z,2.67
2017-11-17T04:09:58.228Z,2.15
2017-11-17T04:10:32.929Z,2.40
2017-11-17T04:11:07.624Z,2.25
2017-11-17T04:11:42.328Z,2.28
2017-11-17T04:12:17.040Z,2.50
2017-11-17T04:12:51.742Z,2.20
2017-11-17T04:13:26.853Z,2.62
2017-11-17T04:14:01.553Z,1.73
2017-11-17T04:14:36.245Z,2.15
2017-11-17T04:15:10.977Z,2.10
2017-11-17T04:15:45.358Z,2.00
2017-11-17T04:16:19.733Z,2.15
2017-11-17T04:16:54.416Z,2.30
2017-11-17T04:17:29.113Z,2.30
2017-11-17T04:18:03.823Z,2.30
2017-11-17T04:18:38.862Z,2.35
2017-11-17T04:19:13.541Z,2.40
2017-11-17T04:19:49.358Z,2.25
2017-11-17T04:20:24.297Z,1.77
2017-11-17T04:20:58.989Z,1.98
2017-11-17T04:21:33.668Z,3.55
2017-11-17T04:22:08.377Z,2.20
2017-11-17T04:22:43.086Z,2.30
2017-11-17T04:23:17.788Z,2.03
2017-11-17T04:23:52.531Z,2.28
2017-11-17T04:24:27.224Z,1.80
2017-11-17T04:25:01.937Z,1.87
2017-11-17T04:25:36.635Z,2.03
2017-11-17T04:26:11.324Z,1.98
2017-11-17T04:26:45.747Z,2.00
2017-11-17T04:27:22.128Z,2.20
2017-11-17T04:27:56.934Z,2.37
2017-11-17T04:28:31.626Z,2.60
2017-11-17T04:29:06.587Z,2.35
2017-11-17T04:29:40.947Z,2.00
2017-11-17T04:30:15.638Z,2.10
2017-11-17T04:30:50.352Z,2.55
2017-11-17T04:31:25.069Z,2.00
2017-11-17T04:31:59.841Z,2.33
2017-11-17T04:32:34.218Z,2.12
2017-11-17T04:33:08.923Z,2.22
2017-11-17T04:33:43.609Z,1.90
2017-11-17T04:34:18.011Z,2.67
2017-11-17T04:34:52.707Z,2.10
2017-11-17T04:35:27.407Z,1.70
2017-11-17T04:36:02.089Z,2.55
2017-11-17T04:36:36.787Z,2.20
2017-11-17T04:37:11.482Z,2.60
2017-11-17T04:37:46.200Z,2.60
2017-11-17T04:38:20.891Z,1.60
2017-11-17T04:38:55.586Z,2.10
2017-11-17T04:39:30.545Z,2.53
2017-11-17T04:40:05.264Z,2.30
2017-11-17T04:40:39.965Z,2.17
2017-11-17T04:41:14.682Z,2.28
2017-11-17T04:41:49.393Z,2.78
2017-11-17T04:42:24.110Z,2.45
2017-11-17T04:42:58.833Z,2.08
2017-11-17T04:43:33.208Z,3.40
2017-11-17T04:44:07.946Z,2.67
2017-11-17T04:44:42.658Z,2.62
2017-11-17T04:45:17.360Z,2.25
2017-11-17T04:45:51.742Z,2.60
2017-11-17T04:46:26.431Z,2.47
2017-11-17T04:47:01.143Z,2.28
2017-11-17T04:47:35.856Z,2.53
2017-11-17T04:48:10.561Z,1.92
2017-11-17T04:48:45.256Z,2.50
2017-11-17T04:49:19.944Z,2.40
2017-11-17T04:49:55.033Z,2.20
2017-11-17T04:50:29.726Z,2.75
2017-11-17T04:51:04.103Z,2.33
2017-11-17T04:51:38.540Z,2.15
2017-11-17T04:52:13.265Z,2.40
2017-11-17T04:52:47.982Z,2.20
2017-11-17T04:53:22.679Z,2.60
2017-11-17T04:53:57.364Z,2.40
2017-11-17T04:54:32.067Z,2.35
2017-11-17T04:55:06.455Z,2.40
2017-11-17T04:55:41.156Z,2.40
2017-11-17T04:56:15.876Z,3.20
2017-11-17T04:56:50.561Z,2.50
2017-11-17T04:57:25.385Z,2.30
2017-11-17T04:58:00.088Z,2.10
2017-11-17T04:58:34.832Z,2.72
2017-11-17T04:59:09.616Z,2.30
2017-11-17T04:59:44.389Z,2.65
2017-11-17T05:00:19.549Z,2.62
2017-11-17T05:00:54.272Z,2.70
2017-11-17T05:01:28.980Z,2.40
2017-11-17T05:02:03.683Z,2.42
2017-11-17T05:02:38.382Z,2.05
2017-11-17T05:03:12.744Z,2.90
2017-11-17T05:03:47.441Z,2.80
2017-11-17T05:04:21.800Z,2.95
2017-11-17T05:04:56.515Z,3.08
2017-11-17T05:05:31.604Z,2.50
2017-11-17T05:06:06.315Z,2.67
2017-11-17T05:06:40.674Z,2.83
2017-11-17T05:07:15.370Z,2.40
2017-11-17T05:07:50.047Z,2.67
2017-11-17T05:08:24.728Z,2.72
2017-11-17T05:08:59.416Z,2.75
2017-11-17T05:09:34.111Z,2.40
2017-11-17T05:10:08.827Z,2.90
2017-11-17T05:10:43.828Z,2.70
2017-11-17T05:11:18.198Z,2.58
2017-11-17T05:11:52.888Z,2.20
2017-11-17T05:12:27.577Z,2.75
2017-11-17T05:13:02.292Z,2.60
2017-11-17T05:13:37.054Z,2.97
2017-11-17T05:14:11.741Z,2.85
2017-11-17T05:14:46.251Z,2.62
2017-11-17T05:15:20.933Z,3.00
2017-11-17T05:15:55.647Z,2.97
2017-11-17T05:16:30.338Z,3.40
2017-11-17T05:17:05.054Z,3.67
2017-11-17T05:17:39.484Z,3.85
2017-11-17T05:18:14.180Z,3.10
2017-11-17T05:18:48.868Z,3.15
2017-11-17T05:19:23.554Z,2.75
2017-11-17T05:19:58.248Z,2.95
2017-11-17T05:20:32.932Z,2.45
2017-11-17T05:21:07.944Z,2.92
2017-11-17T05:21:42.663Z,2.70
2017-11-17T05:22:17.364Z,2.62
2017-11-17T05:22:52.064Z,2.50
2017-11-17T05:23:26.743Z,2.60
2017-11-17T05:24:01.469Z,2.47
2017-11-17T05:24:36.158Z,2.62
2017-11-17T05:25:10.856Z,2.90
2017-11-17T05:25:45.565Z,2.70
2017-11-17T05:26:20.576Z,3.45
2017-11-17T05:26:55.291Z,2.90
2017-11-17T05:27:29.984Z,3.22
2017-11-17T05:28:04.692Z,2.58
2017-11-17T05:28:39.384Z,3.53
2017-11-17T05:29:14.076Z,3.35
2017-11-17T05:29:48.794Z,3.53
2017-11-17T05:30:23.656Z,3.30
2017-11-17T05:30:58.342Z,2.70
2017-11-17T05:31:33.071Z,4.15
2017-11-17T05:32:07.762Z,3.50
2017-11-17T05:32:42.458Z,3.53
2017-11-17T05:33:17.153Z,3.22
2017-11-17T05:33:51.841Z,4.10
2017-11-17T05:34:26.541Z,3.25
2017-11-17T05:35:01.231Z,2.53
2017-11-17T05:35:35.924Z,3.20
2017-11-17T05:36:10.620Z,3.78
2017-11-17T05:36:45.342Z,3.45
2017-11-17T05:37:20.037Z,3.05
2017-11-17T05:37:54.745Z,2.90
2017-11-17T05:38:29.441Z,3.20
2017-11-17T05:39:03.833Z,2.85
2017-11-17T05:39:38.553Z,2.37
2017-11-17T05:40:13.260Z,3.12
2017-11-17T05:40:47.991Z,3.85
2017-11-17T05:41:22.832Z,3.20
2017-11-17T05:41:57.944Z,2.78
2017-11-17T05:42:32.744Z,3.28
2017-11-17T05:43:07.579Z,4.40
2017-11-17T05:43:42.353Z,3.80
2017-11-17T05:44:17.055Z,3.40
2017-11-17T05:44:51.750Z,3.20
2017-11-17T05:45:26.436Z,2.72
2017-11-17T05:46:01.137Z,2.97
2017-11-17T05:46:35.829Z,2.95
2017-11-17T05:47:10.552Z,3.53
2017-11-17T05:47:45.256Z,3.17
2017-11-17T05:48:19.946Z,3.55
2017-11-17T05:48:54.632Z,2.85
2017-11-17T05:49:29.313Z,3.05
2017-11-17T05:50:04.008Z,2.53
2017-11-17T05:50:38.705Z,2.83
2017-11-17T05:51:13.404Z,3.50
2017-11-17T05:51:48.100Z,3.35
2017-11-17T05:52:23.109Z,3.25
2017-11-17T05:52:57.795Z,3.45
2017-11-17T05:53:32.497Z,3.55
2017-11-17T05:54:07.194Z,3.65
2017-11-17T05:54:41.543Z,2.75
2017-11-17T05:55:16.241Z,4.82
2017-11-17T05:55:50.933Z,3.40
2017-11-17T05:56:25.621Z,2.85
2017-11-17T05:57:00.320Z,3.30
2017-11-17T05:57:35.340Z,2.90
2017-11-17T05:58:10.045Z,3.35
2017-11-17T05:58:44.734Z,3.25
2017-11-17T05:59:19.428Z,3.58
2017-11-17T05:59:54.123Z,3.00
2017-11-17T06:00:28.820Z,4.12
2017-11-17T06:01:03.528Z,3.67
2017-11-17T06:01:38.243Z,3.80
2017-11-17T06:02:12.961Z,3.85
2017-11-17T06:02:47.689Z,3.67
2017-11-17T06:03:22.392Z,3.50
2017-11-17T06:03:57.126Z,3.10
2017-11-17T06:04:31.819Z,3.12
2017-11-17T06:05:06.529Z,3.50
2017-11-17T06:05:41.236Z,4.35
2017-11-17T06:06:15.957Z,3.50
2017-11-17T06:06:50.312Z,3.37
2017-11-17T06:07:25.005Z,3.53
2017-11-17T06:07:59.726Z,4.18
2017-11-17T06:08:34.484Z,3.65
2017-11-17T06:09:09.185Z,4.37
2017-11-17T06:09:43.551Z,4.15
2017-11-17T06:10:18.248Z,6.32
2017-11-17T06:10:52.950Z,7.30
2017-11-17T06:11:27.656Z,6.68
2017-11-17T06:12:02.177Z,5.37
2017-11-17T06:12:36.877Z,4.57
2017-11-17T06:13:11.590Z,4.85
2017-11-17T06:13:46.276Z,3.97
2017-11-17T06:14:20.966Z,5.37
2017-11-17T06:14:55.704Z,4.80
2017-11-17T06:15:30.391Z,5.45
2017-11-17T06:16:05.106Z,5.32
2017-11-17T06:16:39.837Z,4.78
2017-11-17T06:17:14.653Z,5.78
2017-11-17T06:17:49.355Z,5.30
2017-11-17T06:18:24.416Z,5.78
2017-11-17T06:18:59.177Z,4.40
2017-11-17T06:19:33.888Z,5.50
2017-11-17T06:20:08.629Z,5.47
2017-11-17T06:20:43.336Z,7.40
2017-11-17T06:21:18.060Z,9.90
2017-11-17T06:21:52.751Z,7.80
2017-11-17T06:22:27.460Z,5.95
2017-11-17T06:23:02.156Z,5.60
2017-11-17T06:23:36.963Z,5.05
2017-11-17T06:24:11.664Z,4.85
2017-11-17T06:24:46.177Z,4.40
2017-11-17T06:25:20.744Z,4.70
2017-11-17T06:25:55.441Z,4.45
2017-11-17T06:26:30.146Z,4.97
2017-11-17T06:27:04.912Z,4.80
2017-11-17T06:27:39.603Z,4.72
2017-11-17T06:28:14.296Z,4.80
2017-11-17T06:28:49.383Z,4.40
2017-11-17T06:29:24.101Z,4.53
2017-11-17T06:29:58.812Z,4.35
2017-11-17T06:30:33.526Z,4.47
2017-11-17T06:31:08.256Z,4.85
2017-11-17T06:31:42.948Z,4.75
2017-11-17T06:32:17.669Z,5.43
2017-11-17T06:32:52.386Z,3.90
2017-11-17T06:33:27.098Z,7.97
2017-11-17T06:34:02.110Z,9.00
2017-11-17T06:34:36.801Z,6.60
2017-11-17T06:35:11.535Z,6.68
2017-11-17T06:35:46.239Z,5.47
2017-11-17T06:36:20.991Z,5.45
2017-11-17T06:36:55.687Z,3.85
2017-11-17T06:37:30.396Z,4.50
2017-11-17T06:38:05.114Z,4.45
2017-11-17T06:38:39.824Z,4.62
2017-11-17T06:39:14.589Z,4.80
2017-11-17T06:39:49.288Z,4.20
2017-11-17T06:40:24.019Z,4.40
2017-11-17T06:40:58.959Z,3.95
2017-11-17T06:41:33.689Z,4.32
2017-11-17T06:42:08.381Z,3.70
2017-11-17T06:42:43.112Z,4.10
2017-11-17T06:43:17.824Z,4.78
2017-11-17T06:43:52.524Z,4.22
2017-11-17T06:44:27.240Z,4.05
2017-11-17T06:45:01.925Z,3.97
2017-11-17T06:45:36.617Z,4.03
2017-11-17T06:46:11.313Z,4.12
2017-11-17T06:46:46.009Z,3.70
2017-11-17T06:47:20.724Z,4.20
2017-11-17T06:47:55.435Z,3.53
2017-11-17T06:48:30.132Z,3.72
2017-11-17T06:49:04.837Z,4.20
2017-11-17T06:49:39.872Z,4.43
2017-11-17T06:50:14.575Z,4.47
2017-11-17T06:50:49.261Z,3.85
2017-11-17T06:51:23.957Z,4.30
2017-11-17T06:51:58.652Z,4.50
2017-11-17T06:52:33.372Z,4.55
2017-11-17T06:53:08.077Z,4.30
2017-11-17T06:53:42.776Z,4.15
2017-11-17T06:54:17.477Z,4.00
2017-11-17T06:54:52.189Z,4.12
2017-11-17T06:55:26.887Z,3.65
2017-11-17T06:56:01.406Z,3.30
2017-11-17T06:56:36.096Z,4.35
2017-11-17T06:57:10.793Z,4.78
2017-11-17T06:57:45.484Z,4.60
2017-11-17T06:58:20.184Z,4.05
2017-11-17T06:58:54.885Z,4.37
2017-11-17T06:59:29.585Z,4.28
2017-11-17T07:00:03.964Z,3.80
2017-11-17T07:00:38.713Z,4.35
2017-11-17T07:01:13.399Z,4.28
2017-11-17T07:01:48.130Z,3.90
2017-11-17T07:02:22.829Z,4.45
2017-11-17T07:02:57.540Z,5.22
2017-11-17T07:03:32.225Z,4.10
2017-11-17T07:04:06.933Z,4.85
2017-11-17T07:04:41.636Z,5.00
2017-11-17T07:05:16.720Z,4.55
2017-11-17T07:05:51.416Z,4.78
2017-11-17T07:06:26.149Z,4.25
2017-11-17T07:07:00.863Z,5.87
2017-11-17T07:07:35.553Z,4.70
2017-11-17T07:08:10.287Z,4.35
2017-11-17T07:08:45.003Z,3.83
2017-11-17T07:09:19.695Z,4.50
2017-11-17T07:09:54.414Z,3.92
2017-11-17T07:10:29.129Z,4.62
2017-11-17T07:11:03.821Z,4.45
2017-11-17T07:11:38.513Z,4.93
2017-11-17T07:12:13.213Z,4.12
2017-11-17T07:12:47.923Z,4.70
2017-11-17T07:13:22.617Z,4.57
2017-11-17T07:13:57.427Z,4.40
2017-11-17T07:14:32.120Z,3.90
2017-11-17T07:15:06.817Z,4.05
2017-11-17T07:15:41.892Z,4.25
2017-11-17T07:16:16.586Z,4.60
2017-11-17T07:16:51.088Z,4.45
2017-11-17T07:17:25.792Z,4.15
2017-11-17T07:18:00.513Z,3.60
2017-11-17T07:18:35.221Z,4.18
2017-11-17T07:19:09.905Z,3.80
2017-11-17T07:19:44.360Z,3.97
2017-11-17T07:20:19.057Z,4.00
2017-11-17T07:20:54.037Z,4.40
2017-11-17T07:21:28.735Z,4.68
2017-11-17T07:22:03.442Z,4.75
2017-11-17T07:22:38.165Z,4.65
2017-11-17T07:23:12.952Z,5.18
2017-11-17T07:23:47.666Z,4.53
2017-11-17T07:24:22.359Z,4.30
2017-11-17T07:24:57.851Z,3.70
2017-11-17T07:25:32.533Z,4.80
2017-11-17T07:26:07.586Z,5.10
2017-11-17T07:26:42.289Z,4.10
2017-11-17T07:27:16.977Z,4.60
2017-11-17T07:27:52.514Z,4.05
2017-11-17T07:28:27.268Z,5.60
2017-11-17T07:29:01.978Z,4.47
2017-11-17T07:29:36.681Z,5.37
2017-11-17T07:30:11.465Z,4.07
2017-11-17T07:30:46.154Z,4.65
2017-11-17T07:31:21.229Z,4.40
2017-11-17T07:31:56.012Z,4.75
2017-11-17T07:32:30.704Z,4.37
2017-11-17T07:33:05.385Z,4.10
2017-11-17T07:33:40.883Z,4.30
2017-11-17T07:34:15.609Z,5.30
2017-11-17T07:34:50.312Z,4.05
2017-11-17T07:35:25.048Z,3.53
2017-11-17T07:35:59.746Z,3.60
2017-11-17T07:36:34.467Z,4.85
2017-11-17T07:37:09.154Z,3.92
2017-11-17T07:37:43.854Z,3.67
2017-11-17T07:38:18.559Z,4.45
2017-11-17T07:38:53.275Z,4.30
2017-11-17T07:39:27.992Z,4.70
2017-11-17T07:40:02.693Z,4.00
2017-11-17T07:40:37.377Z,3.85
2017-11-17T07:41:12.096Z,4.18
2017-11-17T07:41:46.832Z,4.22
2017-11-17T07:42:21.537Z,5.12
2017-11-17T07:42:56.242Z,4.18
2017-11-17T07:43:30.966Z,4.97
2017-11-17T07:44:05.663Z,4.57
2017-11-17T07:44:40.381Z,4.47
2017-11-17T07:45:15.083Z,3.47
2017-11-17T07:45:49.827Z,4.57
2017-11-17T07:46:24.518Z,3.95
2017-11-17T07:46:59.234Z,5.00
2017-11-17T07:47:33.940Z,4.78
2017-11-17T07:48:08.648Z,4.15
2017-11-17T07:48:43.344Z,4.30
2017-11-17T07:49:18.068Z,5.12
2017-11-17T07:49:53.908Z,4.00
2017-11-17T07:50:28.604Z,4.15
2017-11-17T07:51:03.321Z,4.07
2017-11-17T07:51:38.022Z,4.70
2017-11-17T07:52:12.718Z,4.32
2017-11-17T07:52:47.436Z,4.60
2017-11-17T07:53:22.146Z,4.87
2017-11-17T07:53:56.847Z,4.70
2017-11-17T07:54:31.537Z,4.95
2017-11-17T07:55:06.241Z,4.03
2017-11-17T07:55:40.946Z,5.15
2017-11-17T07:56:15.641Z,4.07
2017-11-17T07:56:50.356Z,4.80
2017-11-17T07:57:25.047Z,5.10
2017-11-17T07:57:59.753Z,4.70
2017-11-17T07:58:34.471Z,4.45
2017-11-17T07:59:09.204Z,4.60
2017-11-17T07:59:43.899Z,4.05
2017-11-17T08:00:18.601Z,4.72
2017-11-17T08:00:53.331Z,4.15
2017-11-17T08:01:28.068Z,4.57
2017-11-17T08:02:02.788Z,4.62
2017-11-17T08:02:37.489Z,4.45
2017-11-17T08:03:12.168Z,5.57
2017-11-17T08:03:46.868Z,5.50
2017-11-17T08:04:21.572Z,4.65
2017-11-17T08:04:56.280Z,3.90
2017-11-17T08:05:31.018Z,4.80
2017-11-17T08:06:05.702Z,4.70
2017-11-17T08:06:40.396Z,4.75
2017-11-17T08:07:15.409Z,4.85
2017-11-17T08:07:50.100Z,4.45
2017-11-17T08:08:24.825Z,3.70
2017-11-17T08:08:59.545Z,4.70
2017-11-17T08:09:34.405Z,4.00
2017-11-17T08:10:09.164Z,4.85
2017-11-17T08:10:43.850Z,4.62
2017-11-17T08:11:18.549Z,4.20
2017-11-17T08:11:53.318Z,4.15
2017-11-17T08:12:28.136Z,4.35
2017-11-17T08:13:02.639Z,4.15
2017-11-17T08:13:37.361Z,4.62
2017-11-17T08:14:12.066Z,4.30
2017-11-17T08:14:46.767Z,3.80
2017-11-17T08:15:21.465Z,4.20
2017-11-17T08:15:56.160Z,4.18
2017-11-17T08:16:30.854Z,4.30
2017-11-17T08:17:11.396Z,3.75
2017-11-17T08:17:51.728Z,4.70
2017-11-17T08:18:30.819Z,4.75
2017-11-17T08:19:05.513Z,4.05
2017-11-17T08:19:40.212Z,4.60